sensor_id;sensor_type;location;lat;lon;timestamp;P1;durP1;ratioP1;P2;durP2;ratioP2
434;SDS011;204;48.942;9.256;2022-09-01T00:01:11;11.27;;;10.67;;
434;SDS011;204;48.942;9.256;2022-09-01T00:03:45;11.13;;;10.60;;
434;SDS011;204;48.942;9.256;2022-09-01T00:06:17;12.70;;;11.23;;
434;SDS011;204;48.942;9.256;2022-09-01T00:08:50;11.45;;;10.85;;
434;SDS011;204;48.942;9.256;2022-09-01T00:11:18;13.63;;;12.93;;
434;SDS011;204;48.942;9.256;2022-09-01T00:13:44;11.97;;;11.33;;
434;SDS011;204;48.942;9.256;2022-09-01T00:16:10;11.03;;;10.43;;
434;SDS011;204;48.942;9.256;2022-09-01T00:18:40;11.32;;;10.73;;
434;SDS011;204;48.942;9.256;2022-09-01T00:21:08;11.23;;;10.63;;
434;SDS011;204;48.942;9.256;2022-09-01T00:23:34;12.80;;;12.10;;
434;SDS011;204;48.942;9.256;2022-09-01T00:26:00;11.27;;;10.67;;
434;SDS011;204;48.942;9.256;2022-09-01T00:28:25;11.20;;;10.60;;
434;SDS011;204;48.942;9.256;2022-09-01T00:30:51;10.93;;;10.10;;
434;SDS011;204;48.942;9.256;2022-09-01T00:33:17;11.30;;;10.70;;
434;SDS011;204;48.942;9.256;2022-09-01T00:35:43;11.50;;;10.77;;
434;SDS011;204;48.942;9.256;2022-09-01T00:38:08;11.57;;;10.97;;
434;SDS011;204;48.942;9.256;2022-09-01T00:40:34;12.63;;;11.83;;
434;SDS011;204;48.942;9.256;2022-09-01T00:43:00;10.80;;;10.20;;
434;SDS011;204;48.942;9.256;2022-09-01T00:45:35;11.60;;;11.00;;
434;SDS011;204;48.942;9.256;2022-09-01T00:48:01;11.63;;;11.03;;
434;SDS011;204;48.942;9.256;2022-09-01T00:50:29;11.60;;;11.00;;
434;SDS011;204;48.942;9.256;2022-09-01T00:52:56;12.13;;;11.52;;
434;SDS011;204;48.942;9.256;2022-09-01T00:55:24;12.10;;;11.50;;
434;SDS011;204;48.942;9.256;2022-09-01T00:57:53;11.15;;;10.48;;
434;SDS011;204;48.942;9.256;2022-09-01T01:00:21;11.07;;;10.50;;
434;SDS011;204;48.942;9.256;2022-09-01T01:02:49;12.17;;;11.57;;
434;SDS011;204;48.942;9.256;2022-09-01T01:05:20;10.85;;;10.25;;
434;SDS011;204;48.942;9.256;2022-09-01T01:07:52;12.23;;;11.63;;
434;SDS011;204;48.942;9.256;2022-09-01T01:10:20;12.57;;;11.93;;
434;SDS011;204;48.942;9.256;2022-09-01T01:12:47;12.60;;;11.93;;
434;SDS011;204;48.942;9.256;2022-09-01T01:15:15;12.07;;;11.48;;
434;SDS011;204;48.942;9.256;2022-09-01T01:17:42;11.88;;;11.27;;
434;SDS011;204;48.942;9.256;2022-09-01T01:20:07;14.00;;;12.37;;
434;SDS011;204;48.942;9.256;2022-09-01T01:25:40;12.05;;;11.40;;
434;SDS011;204;48.942;9.256;2022-09-01T01:28:13;12.23;;;11.63;;
434;SDS011;204;48.942;9.256;2022-09-01T01:30:42;12.07;;;11.48;;
434;SDS011;204;48.942;9.256;2022-09-01T01:33:09;13.27;;;12.45;;
434;SDS011;204;48.942;9.256;2022-09-01T01:35:35;12.85;;;12.15;;
434;SDS011;204;48.942;9.256;2022-09-01T01:38:02;13.30;;;12.60;;
434;SDS011;204;48.942;9.256;2022-09-01T01:40:31;12.77;;;12.07;;
434;SDS011;204;48.942;9.256;2022-09-01T01:42:57;13.57;;;12.87;;
434;SDS011;204;48.942;9.256;2022-09-01T01:45:25;11.88;;;11.27;;
434;SDS011;204;48.942;9.256;2022-09-01T01:47:52;13.07;;;12.37;;
434;SDS011;204;48.942;9.256;2022-09-01T01:50:22;13.15;;;11.70;;
434;SDS011;204;48.942;9.256;2022-09-01T01:52:59;13.30;;;12.60;;
434;SDS011;204;48.942;9.256;2022-09-01T01:55:29;12.98;;;12.27;;
434;SDS011;204;48.942;9.256;2022-09-01T01:57:56;12.77;;;12.07;;
434;SDS011;204;48.942;9.256;2022-09-01T02:00:24;13.32;;;12.63;;
434;SDS011;204;48.942;9.256;2022-09-01T02:02:54;13.02;;;12.32;;
434;SDS011;204;48.942;9.256;2022-09-01T02:05:24;16.87;;;13.30;;
434;SDS011;204;48.942;9.256;2022-09-01T02:07:53;13.25;;;12.55;;
434;SDS011;204;48.942;9.256;2022-09-01T02:10:21;14.00;;;13.30;;
434;SDS011;204;48.942;9.256;2022-09-01T02:12:48;13.85;;;13.15;;
434;SDS011;204;48.942;9.256;2022-09-01T02:15:14;15.43;;;14.63;;
434;SDS011;204;48.942;9.256;2022-09-01T02:17:40;15.70;;;14.87;;
434;SDS011;204;48.942;9.256;2022-09-01T02:20:07;17.90;;;17.00;;
434;SDS011;204;48.942;9.256;2022-09-01T02:22:33;17.65;;;16.75;;
434;SDS011;204;48.942;9.256;2022-09-01T02:25:02;15.77;;;14.98;;
434;SDS011;204;48.942;9.256;2022-09-01T02:27:29;14.07;;;13.38;;
434;SDS011;204;48.942;9.256;2022-09-01T02:30:00;16.27;;;15.48;;
434;SDS011;204;48.942;9.256;2022-09-01T02:32:27;16.02;;;15.23;;
434;SDS011;204;48.942;9.256;2022-09-01T02:34:52;18.20;;;15.87;;
434;SDS011;204;48.942;9.256;2022-09-01T02:37:21;18.08;;;17.17;;
434;SDS011;204;48.942;9.256;2022-09-01T02:39:50;17.23;;;16.35;;
434;SDS011;204;48.942;9.256;2022-09-01T02:42:21;15.73;;;14.93;;
434;SDS011;204;48.942;9.256;2022-09-01T02:44:52;17.65;;;16.75;;
434;SDS011;204;48.942;9.256;2022-09-01T02:47:19;17.13;;;16.23;;
434;SDS011;204;48.942;9.256;2022-09-01T02:49:47;14.88;;;14.07;;
434;SDS011;204;48.942;9.256;2022-09-01T02:52:15;15.32;;;14.52;;
434;SDS011;204;48.942;9.256;2022-09-01T02:54:42;15.23;;;14.43;;
434;SDS011;204;48.942;9.256;2022-09-01T02:57:10;14.85;;;14.05;;
434;SDS011;204;48.942;9.256;2022-09-01T02:59:36;15.68;;;14.88;;
434;SDS011;204;48.942;9.256;2022-09-01T03:02:02;15.17;;;14.37;;
434;SDS011;204;48.942;9.256;2022-09-01T03:04:28;16.58;;;15.75;;
434;SDS011;204;48.942;9.256;2022-09-01T03:06:57;19.75;;;18.75;;
434;SDS011;204;48.942;9.256;2022-09-01T03:09:23;21.13;;;20.07;;
434;SDS011;204;48.942;9.256;2022-09-01T03:11:49;22.13;;;21.03;;
434;SDS011;204;48.942;9.256;2022-09-01T03:14:16;17.38;;;16.48;;
434;SDS011;204;48.942;9.256;2022-09-01T03:16:43;23.65;;;22.20;;
434;SDS011;204;48.942;9.256;2022-09-01T03:19:09;20.88;;;19.85;;
434;SDS011;204;48.942;9.256;2022-09-01T03:21:36;21.85;;;20.75;;
434;SDS011;204;48.942;9.256;2022-09-01T03:24:04;19.88;;;18.88;;
434;SDS011;204;48.942;9.256;2022-09-01T03:26:33;19.77;;;18.77;;
434;SDS011;204;48.942;9.256;2022-09-01T03:29:00;19.50;;;18.50;;
434;SDS011;204;48.942;9.256;2022-09-01T03:31:27;18.52;;;17.63;;
434;SDS011;204;48.942;9.256;2022-09-01T03:33:53;18.92;;;17.98;;
434;SDS011;204;48.942;9.256;2022-09-01T03:36:21;22.58;;;18.33;;
434;SDS011;204;48.942;9.256;2022-09-01T03:38:51;19.42;;;18.42;;
434;SDS011;204;48.942;9.256;2022-09-01T03:41:19;19.52;;;18.00;;
434;SDS011;204;48.942;9.256;2022-09-01T03:43:46;18.38;;;17.48;;
434;SDS011;204;48.942;9.256;2022-09-01T03:46:13;20.58;;;19.58;;
434;SDS011;204;48.942;9.256;2022-09-01T03:48:46;24.08;;;21.83;;
434;SDS011;204;48.942;9.256;2022-09-01T03:51:14;29.95;;;26.95;;
434;SDS011;204;48.942;9.256;2022-09-01T03:53:40;25.27;;;24.00;;
434;SDS011;204;48.942;9.256;2022-09-01T03:56:06;27.40;;;26.00;;
434;SDS011;204;48.942;9.256;2022-09-01T03:58:33;28.85;;;26.25;;
434;SDS011;204;48.942;9.256;2022-09-01T04:00:59;27.65;;;26.25;;
434;SDS011;204;48.942;9.256;2022-09-01T04:03:27;26.73;;;25.40;;
434;SDS011;204;48.942;9.256;2022-09-01T04:05:56;28.73;;;27.33;;
434;SDS011;204;48.942;9.256;2022-09-01T04:08:23;28.67;;;27.08;;
434;SDS011;204;48.942;9.256;2022-09-01T04:10:53;28.45;;;27.05;;
434;SDS011;204;48.942;9.256;2022-09-01T04:13:27;31.15;;;29.65;;
434;SDS011;204;48.942;9.256;2022-09-01T04:16:00;30.92;;;29.27;;
434;SDS011;204;48.942;9.256;2022-09-01T04:18:26;34.88;;;30.90;;
434;SDS011;204;48.942;9.256;2022-09-01T04:20:54;32.60;;;30.58;;
434;SDS011;204;48.942;9.256;2022-09-01T04:23:25;31.88;;;30.27;;
434;SDS011;204;48.942;9.256;2022-09-01T04:26:15;32.97;;;30.00;;
434;SDS011;204;48.942;9.256;2022-09-01T04:28:45;36.15;;;32.58;;
434;SDS011;204;48.942;9.256;2022-09-01T04:31:16;38.92;;;30.88;;
434;SDS011;204;48.942;9.256;2022-09-01T04:33:44;35.65;;;30.48;;
434;SDS011;204;48.942;9.256;2022-09-01T04:36:18;34.10;;;31.83;;
434;SDS011;204;48.942;9.256;2022-09-01T04:38:51;35.70;;;32.72;;
434;SDS011;204;48.942;9.256;2022-09-01T04:41:19;37.13;;;32.92;;
434;SDS011;204;48.942;9.256;2022-09-01T04:43:46;39.28;;;32.25;;
434;SDS011;204;48.942;9.256;2022-09-01T04:46:13;33.30;;;29.95;;
434;SDS011;204;48.942;9.256;2022-09-01T04:48:39;38.70;;;32.95;;
434;SDS011;204;48.942;9.256;2022-09-01T04:51:07;35.83;;;31.90;;
434;SDS011;204;48.942;9.256;2022-09-01T04:53:34;34.25;;;30.77;;
434;SDS011;204;48.942;9.256;2022-09-01T04:56:07;36.70;;;31.17;;
434;SDS011;204;48.942;9.256;2022-09-01T04:58:36;34.00;;;29.95;;
434;SDS011;204;48.942;9.256;2022-09-01T05:01:01;33.90;;;29.17;;
434;SDS011;204;48.942;9.256;2022-09-01T05:03:37;38.47;;;33.08;;
434;SDS011;204;48.942;9.256;2022-09-01T05:06:03;33.10;;;30.80;;
434;SDS011;204;48.942;9.256;2022-09-01T05:08:29;38.13;;;31.70;;
434;SDS011;204;48.942;9.256;2022-09-01T05:10:56;37.30;;;31.20;;
434;SDS011;204;48.942;9.256;2022-09-01T05:13:22;32.70;;;29.00;;
434;SDS011;204;48.942;9.256;2022-09-01T05:15:58;36.13;;;30.30;;
434;SDS011;204;48.942;9.256;2022-09-01T05:18:26;33.15;;;31.42;;
434;SDS011;204;48.942;9.256;2022-09-01T05:20:53;33.83;;;30.73;;
434;SDS011;204;48.942;9.256;2022-09-01T05:23:19;38.95;;;32.67;;
434;SDS011;204;48.942;9.256;2022-09-01T05:25:47;37.97;;;32.42;;
434;SDS011;204;48.942;9.256;2022-09-01T05:28:15;40.33;;;31.77;;
434;SDS011;204;48.942;9.256;2022-09-01T05:30:43;43.15;;;33.67;;
434;SDS011;204;48.942;9.256;2022-09-01T05:33:11;37.67;;;31.48;;
434;SDS011;204;48.942;9.256;2022-09-01T05:35:40;36.92;;;31.75;;
434;SDS011;204;48.942;9.256;2022-09-01T05:38:09;36.75;;;30.55;;
434;SDS011;204;48.942;9.256;2022-09-01T05:40:41;37.15;;;30.73;;
434;SDS011;204;48.942;9.256;2022-09-01T05:43:08;36.45;;;32.05;;
434;SDS011;204;48.942;9.256;2022-09-01T05:45:36;39.17;;;32.75;;
434;SDS011;204;48.942;9.256;2022-09-01T05:48:09;35.35;;;31.88;;
434;SDS011;204;48.942;9.256;2022-09-01T05:50:38;40.92;;;31.10;;
434;SDS011;204;48.942;9.256;2022-09-01T05:53:06;40.40;;;32.70;;
434;SDS011;204;48.942;9.256;2022-09-01T05:55:35;35.45;;;30.92;;
434;SDS011;204;48.942;9.256;2022-09-01T05:58:02;43.65;;;33.28;;
434;SDS011;204;48.942;9.256;2022-09-01T06:00:29;38.67;;;32.85;;
434;SDS011;204;48.942;9.256;2022-09-01T06:02:58;39.08;;;32.40;;
434;SDS011;204;48.942;9.256;2022-09-01T06:05:28;38.85;;;30.90;;
434;SDS011;204;48.942;9.256;2022-09-01T06:07:56;38.67;;;31.23;;
434;SDS011;204;48.942;9.256;2022-09-01T06:10:21;34.97;;;30.33;;
434;SDS011;204;48.942;9.256;2022-09-01T06:12:47;36.83;;;31.27;;
434;SDS011;204;48.942;9.256;2022-09-01T06:15:14;35.10;;;29.55;;
434;SDS011;204;48.942;9.256;2022-09-01T06:17:42;31.70;;;28.70;;
434;SDS011;204;48.942;9.256;2022-09-01T06:20:08;32.15;;;26.80;;
434;SDS011;204;48.942;9.256;2022-09-01T06:22:34;30.37;;;25.77;;
434;SDS011;204;48.942;9.256;2022-09-01T06:25:00;26.10;;;24.80;;
434;SDS011;204;48.942;9.256;2022-09-01T06:27:26;25.90;;;23.93;;
434;SDS011;204;48.942;9.256;2022-09-01T06:29:51;23.97;;;22.77;;
434;SDS011;204;48.942;9.256;2022-09-01T06:32:19;23.67;;;21.40;;
434;SDS011;204;48.942;9.256;2022-09-01T06:34:45;24.10;;;21.00;;
434;SDS011;204;48.942;9.256;2022-09-01T06:37:14;25.90;;;22.00;;
434;SDS011;204;48.942;9.256;2022-09-01T06:39:39;24.03;;;22.80;;
434;SDS011;204;48.942;9.256;2022-09-01T06:42:05;21.90;;;19.80;;
434;SDS011;204;48.942;9.256;2022-09-01T06:44:33;23.30;;;18.87;;
434;SDS011;204;48.942;9.256;2022-09-01T06:46:59;25.50;;;20.67;;
434;SDS011;204;48.942;9.256;2022-09-01T06:49:25;21.43;;;20.00;;
434;SDS011;204;48.942;9.256;2022-09-01T06:52:00;26.37;;;20.30;;
434;SDS011;204;48.942;9.256;2022-09-01T06:54:28;21.20;;;19.07;;
434;SDS011;204;48.942;9.256;2022-09-01T06:56:55;20.53;;;18.87;;
434;SDS011;204;48.942;9.256;2022-09-01T06:59:22;20.03;;;18.77;;
434;SDS011;204;48.942;9.256;2022-09-01T07:01:51;17.77;;;16.87;;
434;SDS011;204;48.942;9.256;2022-09-01T07:04:18;17.80;;;15.70;;
434;SDS011;204;48.942;9.256;2022-09-01T07:06:46;17.30;;;16.40;;
434;SDS011;204;48.942;9.256;2022-09-01T07:09:16;16.10;;;15.20;;
434;SDS011;204;48.942;9.256;2022-09-01T07:11:43;14.83;;;14.07;;
434;SDS011;204;48.942;9.256;2022-09-01T07:14:09;13.53;;;12.83;;
434;SDS011;204;48.942;9.256;2022-09-01T07:16:36;15.30;;;14.50;;
434;SDS011;204;48.942;9.256;2022-09-01T07:19:05;12.37;;;11.77;;
434;SDS011;204;48.942;9.256;2022-09-01T07:21:37;13.37;;;12.67;;
434;SDS011;204;48.942;9.256;2022-09-01T07:24:03;12.40;;;11.73;;
434;SDS011;204;48.942;9.256;2022-09-01T07:26:30;12.40;;;11.80;;
434;SDS011;204;48.942;9.256;2022-09-01T07:28:59;10.87;;;10.27;;
434;SDS011;204;48.942;9.256;2022-09-01T07:31:35;10.60;;;10.00;;
434;SDS011;204;48.942;9.256;2022-09-01T07:34:08;9.70;;;9.20;;
434;SDS011;204;48.942;9.256;2022-09-01T07:36:37;9.50;;;9.00;;
434;SDS011;204;48.942;9.256;2022-09-01T07:39:04;11.27;;;10.67;;
434;SDS011;204;48.942;9.256;2022-09-01T07:41:30;10.23;;;9.73;;
434;SDS011;204;48.942;9.256;2022-09-01T07:43:59;11.20;;;10.60;;
434;SDS011;204;48.942;9.256;2022-09-01T07:46:27;10.87;;;10.27;;
434;SDS011;204;48.942;9.256;2022-09-01T07:48:55;10.73;;;10.13;;
434;SDS011;204;48.942;9.256;2022-09-01T07:51:22;10.87;;;10.27;;
434;SDS011;204;48.942;9.256;2022-09-01T07:53:48;9.90;;;8.97;;
434;SDS011;204;48.942;9.256;2022-09-01T07:56:14;11.67;;;11.07;;
434;SDS011;204;48.942;9.256;2022-09-01T07:58:43;10.80;;;10.10;;
434;SDS011;204;48.942;9.256;2022-09-01T08:01:10;9.10;;;8.60;;
434;SDS011;204;48.942;9.256;2022-09-01T08:03:42;10.67;;;10.07;;
434;SDS011;204;48.942;9.256;2022-09-01T08:06:11;10.47;;;9.93;;
434;SDS011;204;48.942;9.256;2022-09-01T08:08:38;9.53;;;9.03;;
434;SDS011;204;48.942;9.256;2022-09-01T08:11:05;9.43;;;8.93;;
434;SDS011;204;48.942;9.256;2022-09-01T08:13:35;12.53;;;9.03;;
434;SDS011;204;48.942;9.256;2022-09-01T08:16:05;8.83;;;8.33;;
434;SDS011;204;48.942;9.256;2022-09-01T08:18:32;9.60;;;8.27;;
434;SDS011;204;48.942;9.256;2022-09-01T08:20:57;7.33;;;6.93;;
434;SDS011;204;48.942;9.256;2022-09-01T08:23:23;7.37;;;6.97;;
434;SDS011;204;48.942;9.256;2022-09-01T08:25:51;7.73;;;7.33;;
434;SDS011;204;48.942;9.256;2022-09-01T08:28:17;7.90;;;6.90;;
434;SDS011;204;48.942;9.256;2022-09-01T08:30:43;7.20;;;6.80;;
434;SDS011;204;48.942;9.256;2022-09-01T08:33:10;7.60;;;7.20;;
434;SDS011;204;48.942;9.256;2022-09-01T08:35:39;8.00;;;7.60;;
434;SDS011;204;48.942;9.256;2022-09-01T08:38:06;6.63;;;6.23;;
434;SDS011;204;48.942;9.256;2022-09-01T08:40:32;7.07;;;6.67;;
434;SDS011;204;48.942;9.256;2022-09-01T08:45:56;5.33;;;5.03;;
434;SDS011;204;48.942;9.256;2022-09-01T08:48:34;5.37;;;5.07;;
434;SDS011;204;48.942;9.256;2022-09-01T08:51:19;5.47;;;5.17;;
434;SDS011;204;48.942;9.256;2022-09-01T08:54:05;5.47;;;4.87;;
434;SDS011;204;48.942;9.256;2022-09-01T08:56:55;6.17;;;5.90;;
434;SDS011;204;48.942;9.256;2022-09-01T08:59:24;6.10;;;5.80;;
434;SDS011;204;48.942;9.256;2022-09-01T09:10:15;6.23;;;5.90;;
434;SDS011;204;48.942;9.256;2022-09-01T09:12:54;6.20;;;5.90;;
434;SDS011;204;48.942;9.256;2022-09-01T09:20:51;6.63;;;4.63;;
434;SDS011;204;48.942;9.256;2022-09-01T09:23:29;5.20;;;4.90;;
434;SDS011;204;48.942;9.256;2022-09-01T09:25:58;5.10;;;4.80;;
434;SDS011;204;48.942;9.256;2022-09-01T09:28:23;4.90;;;4.60;;
434;SDS011;204;48.942;9.256;2022-09-01T09:30:49;5.47;;;5.17;;
434;SDS011;204;48.942;9.256;2022-09-01T09:33:37;5.00;;;4.70;;
434;SDS011;204;48.942;9.256;2022-09-01T09:36:16;4.40;;;4.10;;
434;SDS011;204;48.942;9.256;2022-09-01T09:38:44;4.30;;;4.00;;
434;SDS011;204;48.942;9.256;2022-09-01T09:41:20;5.00;;;4.70;;
434;SDS011;204;48.942;9.256;2022-09-01T09:49:16;4.63;;;4.33;;
434;SDS011;204;48.942;9.256;2022-09-01T09:51:51;5.17;;;4.73;;
434;SDS011;204;48.942;9.256;2022-09-01T09:59:55;9.17;;;6.57;;
434;SDS011;204;48.942;9.256;2022-09-01T10:02:41;4.57;;;4.27;;
434;SDS011;204;48.942;9.256;2022-09-01T10:07:52;4.90;;;4.60;;
434;SDS011;204;48.942;9.256;2022-09-01T10:13:02;4.90;;;4.60;;
434;SDS011;204;48.942;9.256;2022-09-01T10:15:31;6.40;;;4.40;;
434;SDS011;204;48.942;9.256;2022-09-01T10:17:59;5.00;;;4.30;;
434;SDS011;204;48.942;9.256;2022-09-01T10:20:31;6.00;;;4.80;;
434;SDS011;204;48.942;9.256;2022-09-01T10:23:02;4.30;;;4.00;;
434;SDS011;204;48.942;9.256;2022-09-01T10:25:28;4.17;;;3.93;;
434;SDS011;204;48.942;9.256;2022-09-01T10:28:00;4.40;;;4.10;;
434;SDS011;204;48.942;9.256;2022-09-01T10:30:37;4.40;;;4.10;;
434;SDS011;204;48.942;9.256;2022-09-01T10:33:07;4.70;;;4.03;;
434;SDS011;204;48.942;9.256;2022-09-01T10:35:35;3.67;;;3.47;;
434;SDS011;204;48.942;9.256;2022-09-01T10:38:05;4.43;;;3.57;;
434;SDS011;204;48.942;9.256;2022-09-01T10:40:35;4.07;;;3.87;;
434;SDS011;204;48.942;9.256;2022-09-01T10:45:48;3.83;;;3.63;;
434;SDS011;204;48.942;9.256;2022-09-01T10:50:52;4.60;;;4.30;;
434;SDS011;204;48.942;9.256;2022-09-01T10:53:46;4.33;;;4.03;;
434;SDS011;204;48.942;9.256;2022-09-01T10:56:22;4.00;;;3.80;;
434;SDS011;204;48.942;9.256;2022-09-01T11:20:32;4.90;;;4.37;;
434;SDS011;204;48.942;9.256;2022-09-01T11:23:03;4.70;;;4.40;;
434;SDS011;204;48.942;9.256;2022-09-01T11:25:45;4.53;;;4.23;;
434;SDS011;204;48.942;9.256;2022-09-01T11:30:42;4.17;;;3.93;;
434;SDS011;204;48.942;9.256;2022-09-01T11:36:19;4.50;;;4.20;;
434;SDS011;204;48.942;9.256;2022-09-01T11:47:10;3.90;;;3.70;;
434;SDS011;204;48.942;9.256;2022-09-01T11:52:19;3.63;;;3.43;;
434;SDS011;204;48.942;9.256;2022-09-01T11:54:47;3.67;;;3.50;;
434;SDS011;204;48.942;9.256;2022-09-01T11:59:58;4.50;;;4.20;;
434;SDS011;204;48.942;9.256;2022-09-01T12:02:30;3.97;;;3.77;;
434;SDS011;204;48.942;9.256;2022-09-01T12:04:58;4.70;;;4.40;;
434;SDS011;204;48.942;9.256;2022-09-01T12:07:27;4.03;;;3.83;;
434;SDS011;204;48.942;9.256;2022-09-01T12:10:03;4.70;;;4.40;;
434;SDS011;204;48.942;9.256;2022-09-01T12:13:25;3.30;;;3.10;;
434;SDS011;204;48.942;9.256;2022-09-01T12:15:52;4.17;;;3.93;;
434;SDS011;204;48.942;9.256;2022-09-01T12:18:24;4.87;;;4.57;;
434;SDS011;204;48.942;9.256;2022-09-01T12:21:16;4.10;;;3.90;;
434;SDS011;204;48.942;9.256;2022-09-01T12:23:46;4.13;;;3.90;;
434;SDS011;204;48.942;9.256;2022-09-01T12:26:13;5.03;;;4.73;;
434;SDS011;204;48.942;9.256;2022-09-01T12:28:41;4.37;;;4.07;;
434;SDS011;204;48.942;9.256;2022-09-01T12:31:12;4.50;;;4.20;;
434;SDS011;204;48.942;9.256;2022-09-01T12:33:49;4.00;;;3.80;;
434;SDS011;204;48.942;9.256;2022-09-01T12:38:54;4.53;;;4.23;;
434;SDS011;204;48.942;9.256;2022-09-01T12:41:23;4.70;;;4.40;;
434;SDS011;204;48.942;9.256;2022-09-01T12:49:58;2.97;;;2.77;;
434;SDS011;204;48.942;9.256;2022-09-01T12:52:28;3.23;;;3.07;;
434;SDS011;204;48.942;9.256;2022-09-01T12:57:31;3.80;;;3.60;;
434;SDS011;204;48.942;9.256;2022-09-01T13:05:26;3.60;;;3.40;;
434;SDS011;204;48.942;9.256;2022-09-01T13:07:55;4.50;;;4.20;;
434;SDS011;204;48.942;9.256;2022-09-01T13:10:26;4.17;;;3.93;;
434;SDS011;204;48.942;9.256;2022-09-01T13:12:55;4.00;;;3.80;;
434;SDS011;204;48.942;9.256;2022-09-01T13:15:22;4.67;;;4.37;;
434;SDS011;204;48.942;9.256;2022-09-01T13:17:49;4.53;;;4.23;;
434;SDS011;204;48.942;9.256;2022-09-01T13:20:15;4.60;;;4.30;;
434;SDS011;204;48.942;9.256;2022-09-01T13:22:41;4.37;;;4.07;;
434;SDS011;204;48.942;9.256;2022-09-01T13:25:08;4.23;;;3.97;;
434;SDS011;204;48.942;9.256;2022-09-01T13:27:39;4.43;;;4.13;;
434;SDS011;204;48.942;9.256;2022-09-01T13:30:08;4.43;;;4.13;;
434;SDS011;204;48.942;9.256;2022-09-01T13:32:42;4.40;;;4.10;;
434;SDS011;204;48.942;9.256;2022-09-01T13:35:13;3.87;;;3.67;;
434;SDS011;204;48.942;9.256;2022-09-01T13:37:40;4.30;;;4.00;;
434;SDS011;204;48.942;9.256;2022-09-01T13:40:06;3.90;;;3.70;;
434;SDS011;204;48.942;9.256;2022-09-01T13:42:39;4.53;;;4.27;;
434;SDS011;204;48.942;9.256;2022-09-01T13:45:05;3.33;;;3.13;;
434;SDS011;204;48.942;9.256;2022-09-01T13:47:31;3.53;;;3.33;;
434;SDS011;204;48.942;9.256;2022-09-01T13:49:57;3.57;;;3.37;;
434;SDS011;204;48.942;9.256;2022-09-01T13:52:24;3.63;;;3.43;;
434;SDS011;204;48.942;9.256;2022-09-01T13:54:49;3.17;;;2.97;;
434;SDS011;204;48.942;9.256;2022-09-01T13:57:15;3.40;;;3.20;;
434;SDS011;204;48.942;9.256;2022-09-01T13:59:41;3.30;;;3.10;;
434;SDS011;204;48.942;9.256;2022-09-01T14:02:07;2.97;;;2.77;;
434;SDS011;204;48.942;9.256;2022-09-01T14:04:34;3.77;;;3.57;;
434;SDS011;204;48.942;9.256;2022-09-01T14:07:00;3.80;;;3.30;;
434;SDS011;204;48.942;9.256;2022-09-01T14:09:26;2.97;;;2.77;;
434;SDS011;204;48.942;9.256;2022-09-01T14:11:52;2.93;;;2.73;;
434;SDS011;204;48.942;9.256;2022-09-01T14:14:18;2.70;;;2.50;;
434;SDS011;204;48.942;9.256;2022-09-01T14:16:44;3.20;;;3.00;;
434;SDS011;204;48.942;9.256;2022-09-01T14:19:10;2.73;;;2.53;;
434;SDS011;204;48.942;9.256;2022-09-01T14:21:36;3.67;;;3.47;;
434;SDS011;204;48.942;9.256;2022-09-01T14:24:02;4.17;;;3.00;;
434;SDS011;204;48.942;9.256;2022-09-01T14:26:29;2.90;;;2.70;;
434;SDS011;204;48.942;9.256;2022-09-01T14:28:54;3.20;;;3.00;;
434;SDS011;204;48.942;9.256;2022-09-01T14:31:20;2.77;;;2.57;;
434;SDS011;204;48.942;9.256;2022-09-01T14:33:46;3.00;;;2.80;;
434;SDS011;204;48.942;9.256;2022-09-01T14:36:23;2.70;;;2.50;;
434;SDS011;204;48.942;9.256;2022-09-01T14:38:50;2.87;;;2.70;;
434;SDS011;204;48.942;9.256;2022-09-01T14:41:17;3.00;;;2.80;;
434;SDS011;204;48.942;9.256;2022-09-01T14:43:48;3.17;;;2.97;;
434;SDS011;204;48.942;9.256;2022-09-01T14:46:17;3.00;;;2.80;;
434;SDS011;204;48.942;9.256;2022-09-01T14:48:44;2.97;;;2.77;;
434;SDS011;204;48.942;9.256;2022-09-01T14:51:19;3.03;;;2.83;;
434;SDS011;204;48.942;9.256;2022-09-01T14:53:47;3.43;;;3.23;;
434;SDS011;204;48.942;9.256;2022-09-01T14:56:13;4.20;;;3.80;;
434;SDS011;204;48.942;9.256;2022-09-01T14:58:42;2.90;;;2.70;;
434;SDS011;204;48.942;9.256;2022-09-01T15:01:09;3.00;;;2.80;;
434;SDS011;204;48.942;9.256;2022-09-01T15:03:36;3.80;;;3.60;;
434;SDS011;204;48.942;9.256;2022-09-01T15:06:02;3.57;;;3.37;;
434;SDS011;204;48.942;9.256;2022-09-01T15:08:28;3.70;;;3.50;;
434;SDS011;204;48.942;9.256;2022-09-01T15:10:53;3.60;;;3.40;;
434;SDS011;204;48.942;9.256;2022-09-01T15:13:19;7.20;;;3.30;;
434;SDS011;204;48.942;9.256;2022-09-01T15:15:44;3.33;;;3.13;;
434;SDS011;204;48.942;9.256;2022-09-01T15:18:10;2.80;;;2.60;;
434;SDS011;204;48.942;9.256;2022-09-01T15:20:40;3.20;;;2.87;;
434;SDS011;204;48.942;9.256;2022-09-01T15:23:10;3.77;;;3.57;;
434;SDS011;204;48.942;9.256;2022-09-01T15:25:37;3.37;;;3.17;;
434;SDS011;204;48.942;9.256;2022-09-01T15:28:03;6.13;;;3.17;;
434;SDS011;204;48.942;9.256;2022-09-01T15:30:30;3.07;;;2.87;;
434;SDS011;204;48.942;9.256;2022-09-01T15:32:55;5.20;;;3.77;;
434;SDS011;204;48.942;9.256;2022-09-01T15:35:21;3.10;;;2.90;;
434;SDS011;204;48.942;9.256;2022-09-01T15:37:47;6.50;;;6.10;;
434;SDS011;204;48.942;9.256;2022-09-01T15:40:14;3.93;;;3.73;;
434;SDS011;204;48.942;9.256;2022-09-01T15:42:41;3.80;;;3.60;;
434;SDS011;204;48.942;9.256;2022-09-01T15:45:11;4.07;;;3.87;;
434;SDS011;204;48.942;9.256;2022-09-01T15:47:39;3.30;;;3.10;;
434;SDS011;204;48.942;9.256;2022-09-01T15:50:06;3.97;;;3.67;;
434;SDS011;204;48.942;9.256;2022-09-01T15:52:34;4.90;;;3.60;;
434;SDS011;204;48.942;9.256;2022-09-01T15:55:20;3.40;;;3.20;;
434;SDS011;204;48.942;9.256;2022-09-01T15:57:51;3.97;;;3.77;;
434;SDS011;204;48.942;9.256;2022-09-01T16:00:19;3.60;;;3.40;;
434;SDS011;204;48.942;9.256;2022-09-01T16:02:45;5.07;;;4.33;;
434;SDS011;204;48.942;9.256;2022-09-01T16:05:11;4.00;;;3.80;;
434;SDS011;204;48.942;9.256;2022-09-01T16:07:37;3.80;;;3.60;;
434;SDS011;204;48.942;9.256;2022-09-01T16:10:03;4.70;;;4.40;;
434;SDS011;204;48.942;9.256;2022-09-01T16:12:30;4.67;;;4.37;;
434;SDS011;204;48.942;9.256;2022-09-01T16:14:59;4.93;;;4.63;;
434;SDS011;204;48.942;9.256;2022-09-01T16:20:09;5.10;;;4.43;;
434;SDS011;204;48.942;9.256;2022-09-01T16:22:54;4.30;;;4.00;;
434;SDS011;204;48.942;9.256;2022-09-01T16:25:35;4.07;;;3.87;;
434;SDS011;204;48.942;9.256;2022-09-01T16:28:03;4.07;;;3.87;;
434;SDS011;204;48.942;9.256;2022-09-01T16:30:34;4.60;;;4.30;;
434;SDS011;204;48.942;9.256;2022-09-01T16:33:01;7.00;;;5.00;;
434;SDS011;204;48.942;9.256;2022-09-01T16:35:46;5.73;;;4.50;;
434;SDS011;204;48.942;9.256;2022-09-01T16:38:40;10.93;;;4.43;;
434;SDS011;204;48.942;9.256;2022-09-01T16:49:42;4.67;;;4.37;;
434;SDS011;204;48.942;9.256;2022-09-01T16:54:47;3.60;;;3.40;;
434;SDS011;204;48.942;9.256;2022-09-01T17:00:24;4.73;;;4.43;;
434;SDS011;204;48.942;9.256;2022-09-01T17:03:14;10.93;;;5.00;;
434;SDS011;204;48.942;9.256;2022-09-01T17:08:29;5.33;;;5.03;;
434;SDS011;204;48.942;9.256;2022-09-01T17:11:06;5.47;;;5.17;;
434;SDS011;204;48.942;9.256;2022-09-01T17:13:47;5.00;;;4.70;;
434;SDS011;204;48.942;9.256;2022-09-01T17:18:54;4.50;;;4.20;;
434;SDS011;204;48.942;9.256;2022-09-01T17:21:25;4.27;;;3.87;;
434;SDS011;204;48.942;9.256;2022-09-01T17:26:49;4.20;;;3.90;;
434;SDS011;204;48.942;9.256;2022-09-01T17:29:21;4.17;;;3.93;;
434;SDS011;204;48.942;9.256;2022-09-01T17:32:01;6.80;;;6.40;;
434;SDS011;204;48.942;9.256;2022-09-01T17:34:38;5.33;;;4.80;;
434;SDS011;204;48.942;9.256;2022-09-01T17:37:20;6.13;;;4.97;;
434;SDS011;204;48.942;9.256;2022-09-01T17:42:28;4.93;;;4.63;;
434;SDS011;204;48.942;9.256;2022-09-01T17:45:20;5.40;;;5.10;;
434;SDS011;204;48.942;9.256;2022-09-01T17:56:08;4.10;;;3.90;;
434;SDS011;204;48.942;9.256;2022-09-01T17:59:00;4.47;;;4.20;;